Time,TemperatureF,DewpointF,PressureIn,WindDirection,WindDirectionDegrees,WindSpeedMPH,WindSpeedGustMPH,Humidity,HourlyPrecipIn,Conditions,Clouds,dailyrainin,SoftwareType,DateUTC
2013-02-24 00:00:00,32.7,25.3,29.68,West,270,0.0,-999.0,74,-99.99,,,0.00,Acu-Link.com,2013-02-24 05:00:00,
2013-02-24 00:15:00,31.5,24.5,29.68,WSW,247,0.0,-999.0,75,-99.99,,,0.00,Acu-Link.com,2013-02-24 05:15:00,
2013-02-24 00:30:00,30.0,23.7,29.68,SW,225,0.0,-999.0,77,-99.99,,,0.00,Acu-Link.com,2013-02-24 05:30:00,
2013-02-24 00:45:00,29.5,24.1,29.69,West,270,3.7,-999.0,80,-99.99,,,0.00,Acu-Link.com,2013-02-24 05:45:00,
2013-02-24 01:00:00,29.1,24.0,29.69,West,270,1.7,-999.0,81,-99.99,,,0.00,Acu-Link.com,2013-02-24 06:00:00,
2013-02-24 01:15:00,29.1,24.0,29.69,West,270,0.0,-999.0,81,-99.99,,,0.00,Acu-Link.com,2013-02-24 06:15:00,
2013-02-24 01:31:00,28.2,23.1,29.71,WSW,247,0.0,-999.0,81,-99.99,,,0.00,Acu-Link.com,2013-02-24 06:31:00,
2013-02-24 01:46:00,27.5,22.7,29.71,WSW,247,0.0,-999.0,82,-99.99,,,0.00,Acu-Link.com,2013-02-24 06:46:00,
2013-02-24 02:01:00,27.3,22.5,29.71,West,270,0.0,-999.0,82,-99.99,,,0.00,Acu-Link.com,2013-02-24 07:01:00,
2013-02-24 02:16:00,27.3,22.5,29.72,West,270,0.0,-999.0,82,-99.99,,,0.00,Acu-Link.com,2013-02-24 07:16:00,
2013-02-24 02:31:00,27.0,22.3,29.71,West,270,0.0,-999.0,82,-99.99,,,0.00,Acu-Link.com,2013-02-24 07:31:00,
2013-02-24 02:46:00,26.4,21.7,29.72,NW,315,0.0,-999.0,82,-99.99,,,0.00,Acu-Link.com,2013-02-24 07:46:00,
2013-02-24 03:01:00,25.9,21.2,29.71,West,270,1.1,-999.0,82,-99.99,,,0.00,Acu-Link.com,2013-02-24 08:01:00,
2013-02-24 03:16:00,27.3,22.8,29.71,WNW,292,2.2,-999.0,83,-99.99,,,0.00,Acu-Link.com,2013-02-24 08:16:00,
2013-02-24 03:31:00,27.3,22.5,29.72,WSW,247,0.0,-999.0,82,-99.99,,,0.00,Acu-Link.com,2013-02-24 08:31:00,
2013-02-24 03:47:00,25.7,21.0,29.71,ESE,112,0.0,-999.0,82,-99.99,,,0.00,Acu-Link.com,2013-02-24 08:47:00,
2013-02-24 04:02:00,25.0,20.0,29.71,WNW,292,0.0,-999.0,81,-99.99,,,0.00,Acu-Link.com,2013-02-24 09:02:00,
2013-02-24 04:18:00,25.0,20.0,29.71,WNW,292,0.0,-999.0,81,-99.99,,,0.00,Acu-Link.com,2013-02-24 09:18:00,
2013-02-24 04:33:00,26.1,21.4,29.71,WNW,292,4.7,-999.0,82,-99.99,,,0.00,Acu-Link.com,2013-02-24 09:33:00,
2013-02-24 04:48:00,27.1,22.3,29.71,NNW,337,0.0,-999.0,82,-99.99,,,0.00,Acu-Link.com,2013-02-24 09:48:00,
2013-02-24 05:04:00,26.1,21.4,29.72,West,270,0.0,-999.0,82,-99.99,,,0.00,Acu-Link.com,2013-02-24 10:04:00,
2013-02-24 05:19:00,25.0,20.3,29.74,West,270,0.0,-999.0,82,-99.99,,,0.00,Acu-Link.com,2013-02-24 10:19:00,
2013-02-24 05:34:00,24.4,19.7,29.74,WNW,292,1.7,-999.0,82,-99.99,,,0.00,Acu-Link.com,2013-02-24 10:34:00,
2013-02-24 05:49:00,23.7,19.0,29.76,West,270,0.0,-999.0,82,-99.99,,,0.00,Acu-Link.com,2013-02-24 10:49:00,
2013-02-24 06:04:00,24.4,19.4,29.78,West,270,2.7,-999.0,81,-99.99,,,0.00,Acu-Link.com,2013-02-24 11:04:00,
2013-02-24 06:19:00,24.8,20.1,29.78,West,270,0.0,-999.0,82,-99.99,,,0.00,Acu-Link.com,2013-02-24 11:19:00,
2013-02-24 06:34:00,24.1,19.4,29.78,WSW,247,0.0,-999.0,82,-99.99,,,0.00,Acu-Link.com,2013-02-24 11:34:00,
2013-02-24 06:49:00,23.9,19.2,29.80,WSW,247,0.0,-999.0,82,-99.99,,,0.00,Acu-Link.com,2013-02-24 11:49:00,
2013-02-24 07:05:00,23.7,19.0,29.79,WSW,247,0.0,-999.0,82,-99.99,,,0.00,Acu-Link.com,2013-02-24 12:05:00,
2013-02-24 07:20:00,23.7,19.0,29.79,WSW,247,0.0,-999.0,82,-99.99,,,0.00,Acu-Link.com,2013-02-24 12:20:00,
2013-02-24 07:35:00,23.7,19.0,29.81,West,270,2.7,-999.0,82,-99.99,,,0.00,Acu-Link.com,2013-02-24 12:35:00,
2013-02-24 07:50:00,26.1,21.4,29.81,West,270,0.0,-999.0,82,-99.99,,,0.00,Acu-Link.com,2013-02-24 12:50:00,
2013-02-24 08:05:00,29.1,24.6,29.80,SSW,202,0.0,-999.0,83,-99.99,,,0.00,Acu-Link.com,2013-02-24 13:05:00,
2013-02-24 08:20:00,29.1,24.0,29.79,NW,315,2.2,-999.0,81,-99.99,,,0.00,Acu-Link.com,2013-02-24 13:20:00,
2013-02-24 08:35:00,29.8,24.7,29.82,WNW,292,4.2,-999.0,81,-99.99,,,0.00,Acu-Link.com,2013-02-24 13:35:00,
2013-02-24 08:50:00,30.9,25.5,29.81,West,270,3.2,-999.0,80,-99.99,,,0.00,Acu-Link.com,2013-02-24 13:50:00,
2013-02-24 09:05:00,32.2,26.4,29.82,NW,315,3.7,-999.0,79,-99.99,,,0.00,Acu-Link.com,2013-02-24 14:05:00,
2013-02-24 09:21:00,33.3,27.2,29.82,NNE,22,4.7,-999.0,78,-99.99,,,0.00,Acu-Link.com,2013-02-24 14:21:00,
2013-02-24 09:36:00,33.4,27.0,29.82,West,270,3.2,-999.0,77,-99.99,,,0.00,Acu-Link.com,2013-02-24 14:36:00,
2013-02-24 09:51:00,33.3,26.6,29.81,SW,225,2.7,-999.0,76,-99.99,,,0.00,Acu-Link.com,2013-02-24 14:51:00,
2013-02-24 10:06:00,34.3,26.2,29.82,WNW,292,1.7,-999.0,72,-99.99,,,0.00,Acu-Link.com,2013-02-24 15:06:00,
2013-02-24 10:21:00,35.1,26.7,29.83,NNW,337,2.7,-999.0,71,-99.99,,,0.00,Acu-Link.com,2013-02-24 15:21:00,
2013-02-24 10:36:00,35.6,27.1,29.84,SW,225,6.3,-999.0,71,-99.99,,,0.00,Acu-Link.com,2013-02-24 15:36:00,
2013-02-24 10:51:00,36.9,27.7,29.84,WSW,247,6.3,-999.0,69,-99.99,,,0.00,Acu-Link.com,2013-02-24 15:51:00,
2013-02-24 11:06:00,38.1,28.8,29.83,NE,45,3.7,-999.0,69,-99.99,,,0.00,Acu-Link.com,2013-02-24 16:06:00,
2013-02-24 11:21:00,39.4,29.0,29.84,WNW,292,5.3,-999.0,66,-99.99,,,0.00,Acu-Link.com,2013-02-24 16:21:00,
2013-02-24 11:37:00,38.8,28.4,29.84,WNW,292,0.0,-999.0,66,-99.99,,,0.00,Acu-Link.com,2013-02-24 16:37:00,
2013-02-24 11:52:00,40.1,27.7,29.85,WSW,247,3.2,-999.0,61,-99.99,,,0.00,Acu-Link.com,2013-02-24 16:52:00,
2013-02-24 12:07:00,41.2,29.2,29.85,SW,225,4.7,-999.0,62,-99.99,,,0.00,Acu-Link.com,2013-02-24 17:07:00,
2013-02-24 12:22:00,40.8,29.2,29.85,West,270,6.8,-999.0,63,-99.99,,,0.00,Acu-Link.com,2013-02-24 17:22:00,
2013-02-24 12:37:00,40.1,28.1,29.84,West,270,4.7,-999.0,62,-99.99,,,0.00,Acu-Link.com,2013-02-24 17:37:00,
2013-02-24 12:52:00,41.2,28.4,29.83,West,270,4.2,-999.0,60,-99.99,,,0.00,Acu-Link.com,2013-02-24 17:52:00,
2013-02-24 13:07:00,43.2,29.9,29.84,West,270,7.8,-999.0,59,-99.99,,,0.00,Acu-Link.com,2013-02-24 18:07:00,
2013-02-24 13:22:00,42.6,28.9,29.83,SW,225,3.7,-999.0,58,-99.99,,,0.00,Acu-Link.com,2013-02-24 18:22:00,
2013-02-24 13:37:00,43.3,28.7,29.83,West,270,7.3,-999.0,56,-99.99,,,0.00,Acu-Link.com,2013-02-24 18:37:00,
2013-02-24 13:53:00,42.8,29.1,29.83,South,180,2.7,-999.0,58,-99.99,,,0.00,Acu-Link.com,2013-02-24 18:53:00,
2013-02-24 14:08:00,43.2,29.0,29.82,SW,225,8.3,-999.0,57,-99.99,,,0.00,Acu-Link.com,2013-02-24 19:08:00,
2013-02-24 14:23:00,43.2,29.0,29.83,SW,225,4.7,-999.0,57,-99.99,,,0.00,Acu-Link.com,2013-02-24 19:23:00,
2013-02-24 14:38:00,45.5,29.4,29.82,WNW,292,6.3,-999.0,53,-99.99,,,0.00,Acu-Link.com,2013-02-24 19:38:00,
2013-02-24 14:53:00,44.4,28.8,29.82,WNW,292,4.7,-999.0,54,-99.99,,,0.00,Acu-Link.com,2013-02-24 19:53:00,
2013-02-24 15:08:00,45.0,29.8,29.81,WSW,247,3.7,-999.0,55,-99.99,,,0.00,Acu-Link.com,2013-02-24 20:08:00,
2013-02-24 15:23:00,44.6,29.4,29.82,SW,225,3.2,-999.0,55,-99.99,,,0.00,Acu-Link.com,2013-02-24 20:23:00,
2013-02-24 15:38:00,45.0,29.8,29.82,WNW,292,3.7,-999.0,55,-99.99,,,0.00,Acu-Link.com,2013-02-24 20:38:00,
2013-02-24 15:53:00,44.6,29.4,29.81,West,270,5.8,-999.0,55,-99.99,,,0.00,Acu-Link.com,2013-02-24 20:53:00,
2013-02-24 16:09:00,43.7,28.6,29.81,NNE,22,2.2,-999.0,55,-99.99,,,0.00,Acu-Link.com,2013-02-24 21:09:00,
2013-02-24 16:24:00,44.8,29.6,29.81,WSW,247,4.2,-999.0,55,-99.99,,,0.00,Acu-Link.com,2013-02-24 21:24:00,
2013-02-24 16:39:00,46.6,29.5,29.81,West,270,2.7,-999.0,51,-99.99,,,0.00,Acu-Link.com,2013-02-24 21:39:00,
2013-02-24 16:54:00,46.6,29.9,29.81,West,270,6.8,-999.0,52,-99.99,,,0.00,Acu-Link.com,2013-02-24 21:54:00,
2013-02-24 17:09:00,46.0,28.9,29.82,West,270,2.7,-999.0,51,-99.99,,,0.00,Acu-Link.com,2013-02-24 22:09:00,
2013-02-24 17:24:00,44.1,28.1,29.81,NNW,337,3.2,-999.0,53,-99.99,,,0.00,Acu-Link.com,2013-02-24 22:24:00,
2013-02-24 17:39:00,44.1,28.5,29.82,NW,315,0.0,-999.0,54,-99.99,,,0.00,Acu-Link.com,2013-02-24 22:39:00,
2013-02-24 17:54:00,42.8,28.2,29.82,West,270,4.7,-999.0,56,-99.99,,,0.00,Acu-Link.com,2013-02-24 22:54:00,
2013-02-24 18:09:00,41.7,27.6,29.82,WNW,292,2.2,-999.0,57,-99.99,,,0.00,Acu-Link.com,2013-02-24 23:09:00,
2013-02-24 18:25:00,39.0,27.1,29.83,East,90,0.0,-999.0,62,-99.99,,,0.00,Acu-Link.com,2013-02-24 23:25:00,
2013-02-24 18:40:00,36.5,26.6,29.83,South,180,0.0,-999.0,67,-99.99,,,0.00,Acu-Link.com,2013-02-24 23:40:00,
2013-02-24 18:55:00,34.3,26.2,29.83,South,180,0.0,-999.0,72,-99.99,,,0.00,Acu-Link.com,2013-02-24 23:55:00,
2013-02-24 19:10:00,32.9,24.9,29.83,NNE,22,0.0,-999.0,72,-99.99,,,0.00,Acu-Link.com,2013-02-25 00:10:00,
2013-02-24 19:25:00,31.8,24.2,29.83,ESE,112,0.0,-999.0,73,-99.99,,,0.00,Acu-Link.com,2013-02-25 00:25:00,
2013-02-24 19:40:00,30.7,23.1,29.83,West,270,0.0,-999.0,73,-99.99,,,0.00,Acu-Link.com,2013-02-25 00:40:00,
2013-02-24 19:55:00,30.2,23.9,29.84,ESE,112,0.0,-999.0,77,-99.99,,,0.00,Acu-Link.com,2013-02-25 00:55:00,
2013-02-24 20:10:00,29.3,23.6,29.84,ENE,67,0.0,-999.0,79,-99.99,,,0.00,Acu-Link.com,2013-02-25 01:10:00,
2013-02-24 20:25:00,28.0,22.6,29.85,ESE,112,0.0,-999.0,80,-99.99,,,0.00,Acu-Link.com,2013-02-25 01:25:00,
2013-02-24 20:41:00,27.1,21.8,29.85,East,90,0.0,-999.0,80,-99.99,,,0.00,Acu-Link.com,2013-02-25 01:41:00,
2013-02-24 20:56:00,26.2,20.9,29.87,NE,45,0.0,-999.0,80,-99.99,,,0.00,Acu-Link.com,2013-02-25 01:56:00,
2013-02-24 21:11:00,26.8,22.1,29.86,SE,135,0.0,-999.0,82,-99.99,,,0.00,Acu-Link.com,2013-02-25 02:11:00,
2013-02-24 21:26:00,25.7,20.7,29.84,East,90,0.0,-999.0,81,-99.99,,,0.00,Acu-Link.com,2013-02-25 02:26:00,
2013-02-24 21:41:00,25.5,20.5,29.86,South,180,0.0,-999.0,81,-99.99,,,0.00,Acu-Link.com,2013-02-25 02:41:00,
2013-02-24 21:56:00,25.2,20.2,29.86,SSE,157,0.0,-999.0,81,-99.99,,,0.00,Acu-Link.com,2013-02-25 02:56:00,
2013-02-24 22:11:00,25.0,20.3,29.84,North,0,0.0,-999.0,82,-99.99,,,0.00,Acu-Link.com,2013-02-25 03:11:00,
2013-02-24 22:26:00,25.0,20.3,29.86,ESE,112,0.0,-999.0,82,-99.99,,,0.00,Acu-Link.com,2013-02-25 03:26:00,
2013-02-24 22:41:00,24.4,19.4,29.85,ESE,112,0.0,-999.0,81,-99.99,,,0.00,Acu-Link.com,2013-02-25 03:41:00,
2013-02-24 22:57:00,24.1,18.8,29.86,SE,135,0.0,-999.0,80,-99.99,,,0.00,Acu-Link.com,2013-02-25 03:57:00,
2013-02-24 23:12:00,23.5,18.3,29.86,ESE,112,2.2,-999.0,80,-99.99,,,0.00,Acu-Link.com,2013-02-25 04:12:00,
2013-02-24 23:27:00,24.4,19.4,29.85,ESE,112,0.0,-999.0,81,-99.99,,,0.00,Acu-Link.com,2013-02-25 04:27:00,
2013-02-24 23:42:00,27.7,22.9,29.85,NE,45,5.8,-999.0,82,-99.99,,,0.00,Acu-Link.com,2013-02-25 04:42:00,
2013-02-24 23:57:00,28.6,22.9,29.85,East,90,7.3,-999.0,79,-99.99,,,0.00,Acu-Link.com,2013-02-25 04:57:00,